sensor_id;sensor_type;location;lat;lon;timestamp;P1;durP1;ratioP1;P2;durP2;ratioP2
66707;SDS011;53622;0.000;0.000;2023-06-26T00:01:18;8.05;;;6.63;;
66707;SDS011;53622;0.000;0.000;2023-06-26T00:03:49;7.75;;;7.00;;
66707;SDS011;53622;0.000;0.000;2023-06-26T00:06:19;7.25;;;6.43;;
66707;SDS011;53622;0.000;0.000;2023-06-26T00:08:52;7.97;;;7.18;;
66707;SDS011;53622;0.000;0.000;2023-06-26T00:11:21;7.68;;;6.95;;
66707;SDS011;53622;0.000;0.000;2023-06-26T00:13:51;7.10;;;6.40;;
66707;SDS011;53622;0.000;0.000;2023-06-26T00:16:20;7.38;;;6.75;;
66707;SDS011;53622;0.000;0.000;2023-06-26T00:18:49;8.68;;;6.55;;
66707;SDS011;53622;0.000;0.000;2023-06-26T00:21:20;13.55;;;6.78;;
66707;SDS011;53622;0.000;0.000;2023-06-26T00:23:49;8.52;;;6.88;;
66707;SDS011;53622;0.000;0.000;2023-06-26T00:26:18;7.90;;;6.80;;
66707;SDS011;53622;0.000;0.000;2023-06-26T00:28:48;7.55;;;6.28;;
66707;SDS011;53622;0.000;0.000;2023-06-26T00:31:17;7.50;;;6.57;;
66707;SDS011;53622;0.000;0.000;2023-06-26T00:33:46;7.07;;;6.38;;
66707;SDS011;53622;0.000;0.000;2023-06-26T00:36:16;7.13;;;6.43;;
66707;SDS011;53622;0.000;0.000;2023-06-26T00:38:46;8.40;;;6.60;;
66707;SDS011;53622;0.000;0.000;2023-06-26T00:41:16;6.80;;;6.20;;
66707;SDS011;53622;0.000;0.000;2023-06-26T00:43:45;6.80;;;6.07;;
66707;SDS011;53622;0.000;0.000;2023-06-26T00:46:14;8.27;;;6.22;;
66707;SDS011;53622;0.000;0.000;2023-06-26T00:48:44;10.20;;;7.15;;
66707;SDS011;53622;0.000;0.000;2023-06-26T00:51:17;8.35;;;6.25;;
66707;SDS011;53622;0.000;0.000;2023-06-26T00:53:48;6.82;;;6.15;;
66707;SDS011;53622;0.000;0.000;2023-06-26T00:56:18;6.60;;;6.10;;
66707;SDS011;53622;0.000;0.000;2023-06-26T00:58:48;6.95;;;6.30;;
66707;SDS011;53622;0.000;0.000;2023-06-26T01:01:17;6.63;;;6.03;;
66707;SDS011;53622;0.000;0.000;2023-06-26T01:03:53;6.72;;;6.03;;
66707;SDS011;53622;0.000;0.000;2023-06-26T01:06:25;7.28;;;6.57;;
66707;SDS011;53622;0.000;0.000;2023-06-26T01:09:00;7.38;;;6.65;;
66707;SDS011;53622;0.000;0.000;2023-06-26T01:11:30;6.97;;;6.38;;
66707;SDS011;53622;0.000;0.000;2023-06-26T01:13:59;7.95;;;7.00;;
66707;SDS011;53622;0.000;0.000;2023-06-26T01:16:30;7.45;;;6.75;;
66707;SDS011;53622;0.000;0.000;2023-06-26T01:18:59;6.90;;;6.30;;
66707;SDS011;53622;0.000;0.000;2023-06-26T01:21:29;7.18;;;6.57;;
66707;SDS011;53622;0.000;0.000;2023-06-26T01:24:05;7.88;;;6.82;;
66707;SDS011;53622;0.000;0.000;2023-06-26T01:26:50;8.00;;;6.25;;
66707;SDS011;53622;0.000;0.000;2023-06-26T01:29:20;6.90;;;6.30;;
66707;SDS011;53622;0.000;0.000;2023-06-26T01:31:51;7.43;;;6.72;;
66707;SDS011;53622;0.000;0.000;2023-06-26T01:34:21;7.97;;;7.03;;
66707;SDS011;53622;0.000;0.000;2023-06-26T01:36:50;6.47;;;5.93;;
66707;SDS011;53622;0.000;0.000;2023-06-26T01:39:20;9.55;;;6.93;;
66707;SDS011;53622;0.000;0.000;2023-06-26T01:41:51;7.35;;;6.65;;
66707;SDS011;53622;0.000;0.000;2023-06-26T01:44:26;7.90;;;6.63;;
66707;SDS011;53622;0.000;0.000;2023-06-26T01:46:59;8.23;;;6.43;;
66707;SDS011;53622;0.000;0.000;2023-06-26T01:49:32;7.75;;;6.70;;
66707;SDS011;53622;0.000;0.000;2023-06-26T01:52:10;7.05;;;6.45;;
66707;SDS011;53622;0.000;0.000;2023-06-26T01:54:47;7.28;;;6.57;;
66707;SDS011;53622;0.000;0.000;2023-06-26T01:57:24;7.85;;;6.82;;
66707;SDS011;53622;0.000;0.000;2023-06-26T01:59:55;7.40;;;6.70;;
66707;SDS011;53622;0.000;0.000;2023-06-26T02:02:27;8.32;;;6.45;;
66707;SDS011;53622;0.000;0.000;2023-06-26T02:04:57;9.07;;;7.05;;
66707;SDS011;53622;0.000;0.000;2023-06-26T02:07:27;10.57;;;7.13;;
66707;SDS011;53622;0.000;0.000;2023-06-26T02:09:56;6.90;;;6.30;;
66707;SDS011;53622;0.000;0.000;2023-06-26T02:12:27;7.63;;;6.82;;
66707;SDS011;53622;0.000;0.000;2023-06-26T02:14:56;7.35;;;6.70;;
66707;SDS011;53622;0.000;0.000;2023-06-26T02:17:25;8.98;;;6.20;;
66707;SDS011;53622;0.000;0.000;2023-06-26T02:19:55;7.35;;;6.68;;
66707;SDS011;53622;0.000;0.000;2023-06-26T02:22:24;7.10;;;6.50;;
66707;SDS011;53622;0.000;0.000;2023-06-26T02:24:55;7.78;;;7.03;;
66707;SDS011;53622;0.000;0.000;2023-06-26T02:27:26;6.55;;;5.97;;
66707;SDS011;53622;0.000;0.000;2023-06-26T02:29:56;8.50;;;6.70;;
66707;SDS011;53622;0.000;0.000;2023-06-26T02:32:25;7.35;;;6.65;;
66707;SDS011;53622;0.000;0.000;2023-06-26T02:34:54;8.48;;;6.22;;
66707;SDS011;53622;0.000;0.000;2023-06-26T02:37:24;6.80;;;6.10;;
66707;SDS011;53622;0.000;0.000;2023-06-26T02:39:54;7.30;;;6.45;;
66707;SDS011;53622;0.000;0.000;2023-06-26T02:42:23;8.90;;;7.10;;
66707;SDS011;53622;0.000;0.000;2023-06-26T02:44:53;7.38;;;6.68;;
66707;SDS011;53622;0.000;0.000;2023-06-26T02:47:24;7.63;;;6.93;;
66707;SDS011;53622;0.000;0.000;2023-06-26T02:49:53;7.60;;;5.82;;
66707;SDS011;53622;0.000;0.000;2023-06-26T02:52:22;6.93;;;6.10;;
66707;SDS011;53622;0.000;0.000;2023-06-26T02:54:52;7.45;;;6.55;;
66707;SDS011;53622;0.000;0.000;2023-06-26T02:57:21;7.53;;;6.40;;
66707;SDS011;53622;0.000;0.000;2023-06-26T02:59:50;6.70;;;6.20;;
66707;SDS011;53622;0.000;0.000;2023-06-26T03:02:21;7.57;;;6.88;;
66707;SDS011;53622;0.000;0.000;2023-06-26T03:04:51;6.47;;;5.88;;
66707;SDS011;53622;0.000;0.000;2023-06-26T03:07:20;6.47;;;5.82;;
66707;SDS011;53622;0.000;0.000;2023-06-26T03:09:50;6.95;;;6.35;;
66707;SDS011;53622;0.000;0.000;2023-06-26T03:12:19;5.88;;;5.38;;
66707;SDS011;53622;0.000;0.000;2023-06-26T03:14:48;9.80;;;6.78;;
66707;SDS011;53622;0.000;0.000;2023-06-26T03:17:17;7.00;;;6.38;;
66707;SDS011;53622;0.000;0.000;2023-06-26T03:19:51;6.80;;;6.20;;
66707;SDS011;53622;0.000;0.000;2023-06-26T03:22:30;6.88;;;6.25;;
66707;SDS011;53622;0.000;0.000;2023-06-26T03:24:59;7.85;;;6.47;;
66707;SDS011;53622;0.000;0.000;2023-06-26T03:27:30;7.45;;;6.57;;
66707;SDS011;53622;0.000;0.000;2023-06-26T03:29:59;7.88;;;6.63;;
66707;SDS011;53622;0.000;0.000;2023-06-26T03:32:29;7.57;;;6.15;;
66707;SDS011;53622;0.000;0.000;2023-06-26T03:35:00;7.28;;;6.43;;
66707;SDS011;53622;0.000;0.000;2023-06-26T03:37:33;8.27;;;6.72;;
66707;SDS011;53622;0.000;0.000;2023-06-26T03:40:03;7.38;;;6.68;;
66707;SDS011;53622;0.000;0.000;2023-06-26T03:42:33;7.97;;;7.18;;
66707;SDS011;53622;0.000;0.000;2023-06-26T03:45:02;6.97;;;6.38;;
66707;SDS011;53622;0.000;0.000;2023-06-26T03:47:33;7.50;;;6.50;;
66707;SDS011;53622;0.000;0.000;2023-06-26T03:50:04;7.85;;;6.63;;
66707;SDS011;53622;0.000;0.000;2023-06-26T03:52:35;8.88;;;7.05;;
66707;SDS011;53622;0.000;0.000;2023-06-26T03:55:05;9.10;;;6.40;;
66707;SDS011;53622;0.000;0.000;2023-06-26T03:57:34;10.15;;;6.68;;
66707;SDS011;53622;0.000;0.000;2023-06-26T04:00:04;7.97;;;6.55;;
66707;SDS011;53622;0.000;0.000;2023-06-26T04:02:40;8.40;;;6.22;;
66707;SDS011;53622;0.000;0.000;2023-06-26T04:05:12;7.78;;;7.07;;
66707;SDS011;53622;0.000;0.000;2023-06-26T04:07:42;7.75;;;7.05;;
66707;SDS011;53622;0.000;0.000;2023-06-26T04:10:11;7.60;;;6.75;;
66707;SDS011;53622;0.000;0.000;2023-06-26T04:12:40;9.90;;;7.63;;
66707;SDS011;53622;0.000;0.000;2023-06-26T04:15:10;8.75;;;7.50;;
66707;SDS011;53622;0.000;0.000;2023-06-26T04:17:39;8.02;;;7.22;;
66707;SDS011;53622;0.000;0.000;2023-06-26T04:20:09;13.75;;;7.15;;
66707;SDS011;53622;0.000;0.000;2023-06-26T04:22:40;7.35;;;6.65;;
66707;SDS011;53622;0.000;0.000;2023-06-26T04:25:09;8.02;;;7.20;;
66707;SDS011;53622;0.000;0.000;2023-06-26T04:27:40;8.25;;;7.38;;
66707;SDS011;53622;0.000;0.000;2023-06-26T04:30:10;8.77;;;6.88;;
66707;SDS011;53622;0.000;0.000;2023-06-26T04:32:40;9.63;;;6.93;;
66707;SDS011;53622;0.000;0.000;2023-06-26T04:35:09;7.45;;;6.60;;
66707;SDS011;53622;0.000;0.000;2023-06-26T04:37:40;8.15;;;7.05;;
66707;SDS011;53622;0.000;0.000;2023-06-26T04:40:09;7.55;;;6.82;;
66707;SDS011;53622;0.000;0.000;2023-06-26T04:42:39;7.60;;;6.63;;
66707;SDS011;53622;0.000;0.000;2023-06-26T04:45:08;8.10;;;6.75;;
66707;SDS011;53622;0.000;0.000;2023-06-26T04:47:37;7.97;;;7.18;;
66707;SDS011;53622;0.000;0.000;2023-06-26T04:50:07;7.28;;;6.60;;
66707;SDS011;53622;0.000;0.000;2023-06-26T04:52:36;8.07;;;7.22;;
66707;SDS011;53622;0.000;0.000;2023-06-26T04:55:07;9.10;;;6.95;;
66707;SDS011;53622;0.000;0.000;2023-06-26T04:57:36;7.68;;;6.90;;
66707;SDS011;53622;0.000;0.000;2023-06-26T05:00:06;8.10;;;7.30;;
66707;SDS011;53622;0.000;0.000;2023-06-26T05:02:38;7.35;;;6.65;;
66707;SDS011;53622;0.000;0.000;2023-06-26T05:05:07;8.35;;;7.55;;
66707;SDS011;53622;0.000;0.000;2023-06-26T05:07:37;7.60;;;6.97;;
66707;SDS011;53622;0.000;0.000;2023-06-26T05:10:08;8.50;;;7.40;;
66707;SDS011;53622;0.000;0.000;2023-06-26T05:12:38;8.02;;;7.18;;
66707;SDS011;53622;0.000;0.000;2023-06-26T05:15:07;8.55;;;7.80;;
66707;SDS011;53622;0.000;0.000;2023-06-26T05:17:41;8.30;;;7.60;;
66707;SDS011;53622;0.000;0.000;2023-06-26T05:21:31;7.07;;;6.47;;
66707;SDS011;53622;0.000;0.000;2023-06-26T05:23:56;8.15;;;7.38;;
66707;SDS011;53622;0.000;0.000;2023-06-26T05:26:28;8.43;;;7.55;;
66707;SDS011;53622;0.000;0.000;2023-06-26T05:28:58;7.57;;;6.90;;
66707;SDS011;53622;0.000;0.000;2023-06-26T05:31:28;8.27;;;6.90;;
66707;SDS011;53622;0.000;0.000;2023-06-26T05:33:59;9.95;;;6.95;;
66707;SDS011;53622;0.000;0.000;2023-06-26T05:36:29;9.20;;;7.30;;
66707;SDS011;53622;0.000;0.000;2023-06-26T05:39:01;7.93;;;7.15;;
66707;SDS011;53622;0.000;0.000;2023-06-26T05:41:43;9.30;;;7.57;;
66707;SDS011;53622;0.000;0.000;2023-06-26T05:44:13;7.75;;;6.80;;
66707;SDS011;53622;0.000;0.000;2023-06-26T05:46:42;8.05;;;7.22;;
66707;SDS011;53622;0.000;0.000;2023-06-26T05:49:12;8.23;;;6.97;;
66707;SDS011;53622;0.000;0.000;2023-06-26T05:51:42;7.70;;;7.00;;
66707;SDS011;53622;0.000;0.000;2023-06-26T05:54:12;12.30;;;7.20;;
66707;SDS011;53622;0.000;0.000;2023-06-26T05:56:43;7.22;;;6.53;;
66707;SDS011;53622;0.000;0.000;2023-06-26T05:59:14;8.50;;;7.20;;
66707;SDS011;53622;0.000;0.000;2023-06-26T06:01:45;7.88;;;7.07;;
66707;SDS011;53622;0.000;0.000;2023-06-26T06:04:14;8.70;;;7.18;;
66707;SDS011;53622;0.000;0.000;2023-06-26T06:06:43;7.72;;;6.82;;
66707;SDS011;53622;0.000;0.000;2023-06-26T06:09:13;8.32;;;6.93;;
66707;SDS011;53622;0.000;0.000;2023-06-26T06:11:43;7.72;;;7.05;;
66707;SDS011;53622;0.000;0.000;2023-06-26T06:14:13;7.53;;;6.72;;
66707;SDS011;53622;0.000;0.000;2023-06-26T06:16:42;7.28;;;6.65;;
66707;SDS011;53622;0.000;0.000;2023-06-26T06:19:11;8.35;;;6.80;;
66707;SDS011;53622;0.000;0.000;2023-06-26T06:21:40;10.57;;;6.70;;
66707;SDS011;53622;0.000;0.000;2023-06-26T06:24:10;9.45;;;6.70;;
66707;SDS011;53622;0.000;0.000;2023-06-26T06:26:39;7.70;;;7.00;;
66707;SDS011;53622;0.000;0.000;2023-06-26T06:29:10;7.22;;;6.53;;
66707;SDS011;53622;0.000;0.000;2023-06-26T06:31:39;7.43;;;6.72;;
66707;SDS011;53622;0.000;0.000;2023-06-26T06:34:09;7.95;;;6.85;;
66707;SDS011;53622;0.000;0.000;2023-06-26T06:36:39;7.65;;;6.65;;
66707;SDS011;53622;0.000;0.000;2023-06-26T06:39:09;6.82;;;6.20;;
66707;SDS011;53622;0.000;0.000;2023-06-26T06:41:38;7.15;;;6.38;;
66707;SDS011;53622;0.000;0.000;2023-06-26T06:44:07;8.43;;;6.70;;
66707;SDS011;53622;0.000;0.000;2023-06-26T06:46:38;8.85;;;6.88;;
66707;SDS011;53622;0.000;0.000;2023-06-26T06:49:07;6.43;;;5.85;;
66707;SDS011;53622;0.000;0.000;2023-06-26T06:51:37;7.63;;;6.78;;
66707;SDS011;53622;0.000;0.000;2023-06-26T06:54:06;7.05;;;6.35;;
66707;SDS011;53622;0.000;0.000;2023-06-26T06:56:35;7.13;;;6.53;;
66707;SDS011;53622;0.000;0.000;2023-06-26T06:59:05;7.45;;;6.65;;
66707;SDS011;53622;0.000;0.000;2023-06-26T07:01:34;7.40;;;6.70;;
66707;SDS011;53622;0.000;0.000;2023-06-26T07:04:05;8.43;;;6.47;;
66707;SDS011;53622;0.000;0.000;2023-06-26T07:06:34;7.00;;;6.30;;
66707;SDS011;53622;0.000;0.000;2023-06-26T07:09:03;7.00;;;6.40;;
66707;SDS011;53622;0.000;0.000;2023-06-26T07:11:33;7.15;;;6.45;;
66707;SDS011;53622;0.000;0.000;2023-06-26T07:14:03;6.63;;;6.03;;
66707;SDS011;53622;0.000;0.000;2023-06-26T07:16:32;6.50;;;5.90;;
66707;SDS011;53622;0.000;0.000;2023-06-26T07:19:01;6.43;;;5.80;;
66707;SDS011;53622;0.000;0.000;2023-06-26T07:21:32;7.20;;;6.50;;
66707;SDS011;53622;0.000;0.000;2023-06-26T07:24:01;7.65;;;6.03;;
66707;SDS011;53622;0.000;0.000;2023-06-26T07:26:31;6.78;;;6.07;;
66707;SDS011;53622;0.000;0.000;2023-06-26T07:29:11;7.70;;;5.80;;
66707;SDS011;53622;0.000;0.000;2023-06-26T07:31:40;6.82;;;6.10;;
66707;SDS011;53622;0.000;0.000;2023-06-26T07:34:11;6.53;;;5.88;;
66707;SDS011;53622;0.000;0.000;2023-06-26T07:36:42;6.53;;;5.50;;
66707;SDS011;53622;0.000;0.000;2023-06-26T07:39:11;6.60;;;6.00;;
66707;SDS011;53622;0.000;0.000;2023-06-26T07:41:48;6.50;;;5.90;;
66707;SDS011;53622;0.000;0.000;2023-06-26T07:44:17;6.63;;;6.03;;
66707;SDS011;53622;0.000;0.000;2023-06-26T07:46:47;7.72;;;6.93;;
66707;SDS011;53622;0.000;0.000;2023-06-26T07:49:16;6.22;;;5.72;;
66707;SDS011;53622;0.000;0.000;2023-06-26T07:51:46;6.55;;;5.95;;
66707;SDS011;53622;0.000;0.000;2023-06-26T07:54:16;6.18;;;5.60;;
66707;SDS011;53622;0.000;0.000;2023-06-26T07:56:53;6.25;;;5.75;;
66707;SDS011;53622;0.000;0.000;2023-06-26T07:59:23;6.72;;;6.13;;
66707;SDS011;53622;0.000;0.000;2023-06-26T08:01:55;5.47;;;5.07;;
66707;SDS011;53622;0.000;0.000;2023-06-26T08:04:25;6.25;;;5.65;;
66707;SDS011;53622;0.000;0.000;2023-06-26T08:06:57;5.97;;;5.47;;
66707;SDS011;53622;0.000;0.000;2023-06-26T08:09:28;6.38;;;5.88;;
66707;SDS011;53622;0.000;0.000;2023-06-26T08:11:58;5.60;;;5.13;;
66707;SDS011;53622;0.000;0.000;2023-06-26T08:14:27;6.03;;;5.53;;
66707;SDS011;53622;0.000;0.000;2023-06-26T08:16:57;5.78;;;5.28;;
66707;SDS011;53622;0.000;0.000;2023-06-26T08:19:26;5.53;;;5.03;;
66707;SDS011;53622;0.000;0.000;2023-06-26T08:21:57;5.93;;;5.30;;
66707;SDS011;53622;0.000;0.000;2023-06-26T08:24:26;5.63;;;5.05;;
66707;SDS011;53622;0.000;0.000;2023-06-26T08:26:56;5.45;;;5.05;;
66707;SDS011;53622;0.000;0.000;2023-06-26T08:29:26;5.78;;;5.28;;
66707;SDS011;53622;0.000;0.000;2023-06-26T08:31:55;5.75;;;5.25;;
66707;SDS011;53622;0.000;0.000;2023-06-26T08:34:24;5.68;;;5.20;;
66707;SDS011;53622;0.000;0.000;2023-06-26T08:36:54;5.97;;;5.45;;
66707;SDS011;53622;0.000;0.000;2023-06-26T08:39:24;7.03;;;6.32;;
66707;SDS011;53622;0.000;0.000;2023-06-26T08:41:54;5.88;;;5.35;;
66707;SDS011;53622;0.000;0.000;2023-06-26T08:44:23;6.00;;;5.50;;
66707;SDS011;53622;0.000;0.000;2023-06-26T08:46:52;6.03;;;5.43;;
66707;SDS011;53622;0.000;0.000;2023-06-26T08:49:37;5.72;;;5.22;;
66707;SDS011;53622;0.000;0.000;2023-06-26T08:52:17;5.88;;;5.43;;
66707;SDS011;53622;0.000;0.000;2023-06-26T08:54:50;5.85;;;5.30;;
66707;SDS011;53622;0.000;0.000;2023-06-26T08:57:25;4.97;;;4.57;;
66707;SDS011;53622;0.000;0.000;2023-06-26T08:59:56;5.00;;;4.60;;
66707;SDS011;53622;0.000;0.000;2023-06-26T09:02:25;5.70;;;5.20;;
66707;SDS011;53622;0.000;0.000;2023-06-26T09:04:55;5.65;;;5.15;;
66707;SDS011;53622;0.000;0.000;2023-06-26T09:07:25;5.25;;;4.75;;
66707;SDS011;53622;0.000;0.000;2023-06-26T09:09:56;5.47;;;5.07;;
66707;SDS011;53622;0.000;0.000;2023-06-26T09:12:26;5.47;;;5.07;;
66707;SDS011;53622;0.000;0.000;2023-06-26T09:14:56;5.35;;;4.95;;
66707;SDS011;53622;0.000;0.000;2023-06-26T09:17:27;5.50;;;5.10;;
66707;SDS011;53622;0.000;0.000;2023-06-26T09:19:58;5.95;;;5.35;;
66707;SDS011;53622;0.000;0.000;2023-06-26T09:22:28;5.30;;;4.88;;
66707;SDS011;53622;0.000;0.000;2023-06-26T09:24:58;6.03;;;5.53;;
66707;SDS011;53622;0.000;0.000;2023-06-26T09:27:29;6.07;;;5.57;;
66707;SDS011;53622;0.000;0.000;2023-06-26T09:29:58;5.90;;;5.40;;
66707;SDS011;53622;0.000;0.000;2023-06-26T09:32:28;5.85;;;5.35;;
66707;SDS011;53622;0.000;0.000;2023-06-26T09:34:57;5.97;;;5.47;;
66707;SDS011;53622;0.000;0.000;2023-06-26T09:37:27;6.03;;;5.43;;
66707;SDS011;53622;0.000;0.000;2023-06-26T09:39:56;5.72;;;5.28;;
66707;SDS011;53622;0.000;0.000;2023-06-26T09:42:27;6.10;;;5.50;;
66707;SDS011;53622;0.000;0.000;2023-06-26T09:44:58;5.65;;;5.15;;
66707;SDS011;53622;0.000;0.000;2023-06-26T09:47:29;5.25;;;4.75;;
66707;SDS011;53622;0.000;0.000;2023-06-26T09:50:00;5.90;;;5.40;;
66707;SDS011;53622;0.000;0.000;2023-06-26T09:52:31;6.13;;;5.45;;
66707;SDS011;53622;0.000;0.000;2023-06-26T09:55:09;6.15;;;5.55;;
66707;SDS011;53622;0.000;0.000;2023-06-26T09:57:39;5.85;;;5.38;;
66707;SDS011;53622;0.000;0.000;2023-06-26T10:00:13;5.18;;;4.78;;
66707;SDS011;53622;0.000;0.000;2023-06-26T10:02:43;5.35;;;4.95;;
66707;SDS011;53622;0.000;0.000;2023-06-26T10:05:13;5.72;;;5.22;;
66707;SDS011;53622;0.000;0.000;2023-06-26T10:07:43;5.78;;;5.28;;
66707;SDS011;53622;0.000;0.000;2023-06-26T10:10:13;5.35;;;4.95;;
66707;SDS011;53622;0.000;0.000;2023-06-26T10:12:45;5.82;;;5.32;;
66707;SDS011;53622;0.000;0.000;2023-06-26T10:15:18;5.32;;;4.93;;
66707;SDS011;53622;0.000;0.000;2023-06-26T10:17:49;5.40;;;5.00;;
66707;SDS011;53622;0.000;0.000;2023-06-26T10:20:20;5.85;;;5.35;;
66707;SDS011;53622;0.000;0.000;2023-06-26T10:22:50;5.65;;;5.18;;
66707;SDS011;53622;0.000;0.000;2023-06-26T10:25:21;5.18;;;4.78;;
66707;SDS011;53622;0.000;0.000;2023-06-26T10:27:55;5.57;;;5.10;;
66707;SDS011;53622;0.000;0.000;2023-06-26T10:30:26;5.85;;;5.35;;
66707;SDS011;53622;0.000;0.000;2023-06-26T10:32:58;5.70;;;5.18;;
66707;SDS011;53622;0.000;0.000;2023-06-26T10:35:29;6.82;;;5.55;;
66707;SDS011;53622;0.000;0.000;2023-06-26T10:38:00;8.77;;;5.10;;
66707;SDS011;53622;0.000;0.000;2023-06-26T10:40:41;5.82;;;5.22;;
66707;SDS011;53622;0.000;0.000;2023-06-26T10:43:12;6.28;;;5.30;;
66707;SDS011;53622;0.000;0.000;2023-06-26T10:45:45;7.72;;;5.25;;
66707;SDS011;53622;0.000;0.000;2023-06-26T10:48:19;7.93;;;4.78;;
66707;SDS011;53622;0.000;0.000;2023-06-26T10:50:50;6.75;;;5.00;;
66707;SDS011;53622;0.000;0.000;2023-06-26T10:53:22;5.65;;;5.00;;
66707;SDS011;53622;0.000;0.000;2023-06-26T10:56:02;5.97;;;5.10;;
66707;SDS011;53622;0.000;0.000;2023-06-26T10:58:34;6.00;;;5.25;;
66707;SDS011;53622;0.000;0.000;2023-06-26T11:01:22;5.47;;;4.97;;
66707;SDS011;53622;0.000;0.000;2023-06-26T11:06:40;6.47;;;5.07;;
66707;SDS011;53622;0.000;0.000;2023-06-26T11:09:11;5.78;;;5.18;;
66707;SDS011;53622;0.000;0.000;2023-06-26T11:11:57;5.10;;;4.60;;
66707;SDS011;53622;0.000;0.000;2023-06-26T11:14:32;5.90;;;4.70;;
66707;SDS011;53622;0.000;0.000;2023-06-26T11:17:02;5.80;;;5.30;;
66707;SDS011;53622;0.000;0.000;2023-06-26T11:19:37;5.50;;;5.05;;
66707;SDS011;53622;0.000;0.000;2023-06-26T11:22:18;5.70;;;5.20;;
66707;SDS011;53622;0.000;0.000;2023-06-26T11:24:49;5.88;;;5.18;;
66707;SDS011;53622;0.000;0.000;2023-06-26T11:27:23;5.30;;;4.80;;
66707;SDS011;53622;0.000;0.000;2023-06-26T11:29:53;5.10;;;4.70;;
66707;SDS011;53622;0.000;0.000;2023-06-26T11:32:22;5.30;;;4.80;;
66707;SDS011;53622;0.000;0.000;2023-06-26T11:34:54;6.63;;;5.18;;
66707;SDS011;53622;0.000;0.000;2023-06-26T11:37:24;6.25;;;4.72;;
66707;SDS011;53622;0.000;0.000;2023-06-26T11:39:54;5.50;;;4.80;;
66707;SDS011;53622;0.000;0.000;2023-06-26T11:42:25;5.18;;;4.78;;
66707;SDS011;53622;0.000;0.000;2023-06-26T11:44:54;6.00;;;5.28;;
66707;SDS011;53622;0.000;0.000;2023-06-26T11:47:24;5.22;;;4.72;;
66707;SDS011;53622;0.000;0.000;2023-06-26T11:49:54;5.18;;;4.78;;
66707;SDS011;53622;0.000;0.000;2023-06-26T11:52:24;5.55;;;5.00;;
66707;SDS011;53622;0.000;0.000;2023-06-26T11:54:53;7.13;;;5.28;;
66707;SDS011;53622;0.000;0.000;2023-06-26T11:57:24;5.68;;;5.07;;
66707;SDS011;53622;0.000;0.000;2023-06-26T11:59:54;4.75;;;4.13;;
66707;SDS011;53622;0.000;0.000;2023-06-26T12:02:24;5.47;;;4.97;;
66707;SDS011;53622;0.000;0.000;2023-06-26T12:04:54;5.60;;;5.10;;
66707;SDS011;53622;0.000;0.000;2023-06-26T12:07:23;8.27;;;5.13;;
66707;SDS011;53622;0.000;0.000;2023-06-26T12:09:53;6.05;;;5.45;;
66707;SDS011;53622;0.000;0.000;2023-06-26T12:12:26;6.95;;;4.55;;
66707;SDS011;53622;0.000;0.000;2023-06-26T12:14:56;6.72;;;5.25;;
66707;SDS011;53622;0.000;0.000;2023-06-26T12:17:27;4.88;;;4.43;;
66707;SDS011;53622;0.000;0.000;2023-06-26T12:19:56;7.70;;;4.95;;
66707;SDS011;53622;0.000;0.000;2023-06-26T12:22:26;8.10;;;4.68;;
66707;SDS011;53622;0.000;0.000;2023-06-26T12:25:03;5.32;;;4.70;;
66707;SDS011;53622;0.000;0.000;2023-06-26T12:27:37;5.70;;;4.82;;
66707;SDS011;53622;0.000;0.000;2023-06-26T12:30:06;5.53;;;5.07;;
66707;SDS011;53622;0.000;0.000;2023-06-26T12:32:36;5.03;;;4.57;;
66707;SDS011;53622;0.000;0.000;2023-06-26T12:35:06;6.03;;;4.80;;
66707;SDS011;53622;0.000;0.000;2023-06-26T12:37:38;4.93;;;4.35;;
66707;SDS011;53622;0.000;0.000;2023-06-26T12:40:16;5.03;;;4.63;;
66707;SDS011;53622;0.000;0.000;2023-06-26T12:42:47;6.00;;;4.80;;
66707;SDS011;53622;0.000;0.000;2023-06-26T12:45:17;7.05;;;4.97;;
66707;SDS011;53622;0.000;0.000;2023-06-26T12:47:50;6.07;;;5.03;;
66707;SDS011;53622;0.000;0.000;2023-06-26T12:50:20;5.78;;;5.03;;
66707;SDS011;53622;0.000;0.000;2023-06-26T12:52:49;5.55;;;5.05;;
66707;SDS011;53622;0.000;0.000;2023-06-26T12:55:19;5.18;;;4.68;;
66707;SDS011;53622;0.000;0.000;2023-06-26T12:57:51;7.95;;;5.03;;
66707;SDS011;53622;0.000;0.000;2023-06-26T13:00:20;5.43;;;4.93;;
66707;SDS011;53622;0.000;0.000;2023-06-26T13:02:51;7.63;;;5.45;;
66707;SDS011;53622;0.000;0.000;2023-06-26T13:05:20;5.22;;;4.72;;
66707;SDS011;53622;0.000;0.000;2023-06-26T13:07:49;5.43;;;4.93;;
66707;SDS011;53622;0.000;0.000;2023-06-26T13:10:18;6.35;;;4.68;;
66707;SDS011;53622;0.000;0.000;2023-06-26T13:12:48;5.90;;;5.35;;
66707;SDS011;53622;0.000;0.000;2023-06-26T13:15:19;6.60;;;5.35;;
66707;SDS011;53622;0.000;0.000;2023-06-26T13:17:48;5.22;;;4.82;;
66707;SDS011;53622;0.000;0.000;2023-06-26T13:20:18;5.05;;;4.63;;
66707;SDS011;53622;0.000;0.000;2023-06-26T13:22:47;6.65;;;5.15;;
66707;SDS011;53622;0.000;0.000;2023-06-26T13:25:16;5.50;;;5.00;;
66707;SDS011;53622;0.000;0.000;2023-06-26T13:27:45;5.60;;;5.10;;
66707;SDS011;53622;0.000;0.000;2023-06-26T13:30:16;7.15;;;5.35;;
66707;SDS011;53622;0.000;0.000;2023-06-26T13:32:46;5.43;;;4.70;;
66707;SDS011;53622;0.000;0.000;2023-06-26T13:35:15;6.55;;;4.72;;
66707;SDS011;53622;0.000;0.000;2023-06-26T13:37:45;5.72;;;4.97;;
66707;SDS011;53622;0.000;0.000;2023-06-26T13:40:15;5.50;;;5.00;;
66707;SDS011;53622;0.000;0.000;2023-06-26T13:42:44;5.32;;;4.93;;
66707;SDS011;53622;0.000;0.000;2023-06-26T13:45:15;5.10;;;4.60;;
66707;SDS011;53622;0.000;0.000;2023-06-26T13:47:57;5.15;;;4.65;;
66707;SDS011;53622;0.000;0.000;2023-06-26T13:50:26;5.45;;;4.97;;
66707;SDS011;53622;0.000;0.000;2023-06-26T13:53:14;5.55;;;5.07;;
66707;SDS011;53622;0.000;0.000;2023-06-26T13:55:44;5.55;;;4.90;;
66707;SDS011;53622;0.000;0.000;2023-06-26T13:58:13;5.75;;;5.20;;
66707;SDS011;53622;0.000;0.000;2023-06-26T14:00:44;4.90;;;4.50;;
66707;SDS011;53622;0.000;0.000;2023-06-26T14:03:17;4.88;;;4.43;;
66707;SDS011;53622;0.000;0.000;2023-06-26T14:05:46;5.32;;;4.85;;
66707;SDS011;53622;0.000;0.000;2023-06-26T14:08:16;5.22;;;4.72;;
66707;SDS011;53622;0.000;0.000;2023-06-26T14:10:46;5.00;;;4.60;;
66707;SDS011;53622;0.000;0.000;2023-06-26T14:13:15;5.20;;;4.72;;
66707;SDS011;53622;0.000;0.000;2023-06-26T14:15:49;4.80;;;4.40;;
66707;SDS011;53622;0.000;0.000;2023-06-26T14:18:20;5.72;;;4.57;;
66707;SDS011;53622;0.000;0.000;2023-06-26T14:20:51;6.05;;;4.60;;
66707;SDS011;53622;0.000;0.000;2023-06-26T14:23:20;5.28;;;4.88;;
66707;SDS011;53622;0.000;0.000;2023-06-26T14:25:49;4.55;;;4.15;;
66707;SDS011;53622;0.000;0.000;2023-06-26T14:28:19;5.40;;;4.90;;
66707;SDS011;53622;0.000;0.000;2023-06-26T14:30:49;5.20;;;4.70;;
66707;SDS011;53622;0.000;0.000;2023-06-26T14:33:19;4.95;;;4.50;;
66707;SDS011;53622;0.000;0.000;2023-06-26T14:35:48;4.78;;;4.38;;
66707;SDS011;53622;0.000;0.000;2023-06-26T14:38:17;5.32;;;4.93;;
66707;SDS011;53622;0.000;0.000;2023-06-26T14:40:46;6.57;;;4.53;;
66707;SDS011;53622;0.000;0.000;2023-06-26T14:43:16;5.03;;;4.53;;
66707;SDS011;53622;0.000;0.000;2023-06-26T14:45:46;5.03;;;4.63;;
66707;SDS011;53622;0.000;0.000;2023-06-26T14:48:17;4.90;;;4.50;;
66707;SDS011;53622;0.000;0.000;2023-06-26T14:50:47;5.10;;;4.60;;
66707;SDS011;53622;0.000;0.000;2023-06-26T14:53:16;5.22;;;4.72;;
66707;SDS011;53622;0.000;0.000;2023-06-26T14:55:45;4.55;;;4.15;;
66707;SDS011;53622;0.000;0.000;2023-06-26T14:58:15;5.10;;;4.57;;
66707;SDS011;53622;0.000;0.000;2023-06-26T15:00:44;4.90;;;4.50;;
66707;SDS011;53622;0.000;0.000;2023-06-26T15:03:13;5.07;;;4.32;;
66707;SDS011;53622;0.000;0.000;2023-06-26T15:05:44;7.00;;;4.35;;
66707;SDS011;53622;0.000;0.000;2023-06-26T15:08:13;5.05;;;4.50;;
66707;SDS011;53622;0.000;0.000;2023-06-26T15:10:42;5.25;;;4.28;;
66707;SDS011;53622;0.000;0.000;2023-06-26T15:13:12;5.35;;;4.85;;
66707;SDS011;53622;0.000;0.000;2023-06-26T15:15:41;4.72;;;4.32;;
66707;SDS011;53622;0.000;0.000;2023-06-26T15:18:10;6.97;;;4.40;;
66707;SDS011;53622;0.000;0.000;2023-06-26T15:20:39;7.05;;;5.00;;
66707;SDS011;53622;0.000;0.000;2023-06-26T15:23:10;4.72;;;4.32;;
66707;SDS011;53622;0.000;0.000;2023-06-26T15:25:40;4.78;;;4.38;;